Time;durP1;ratioP1;P1;durP2;ratioP2;P2;SDS_P1;SDS_P2;PMS_P1;PMS_P2;Temp;Humidity;BMP_temperature;BMP_pressure;BME280_temperature;BME280_humidity;BME280_pressure;Samples;Min_cycle;Max_cycle;Signal;HPM_P1;HPM_P2
2021/03/24 00:01:18;;;;;;;25.38;13.70;;;3.80;99.90;;;;;;5004048;28;20211;-77
2021/03/24 00:03:45;;;;;;;24.83;13.48;;;4.00;99.90;;;;;;5011351;28;20224;-78
2021/03/24 00:06:11;;;;;;;22.13;12.88;;;3.90;99.90;;;;;;5011252;28;20284;-77
2021/03/24 00:08:38;;;;;;;26.13;12.48;;;3.90;99.90;;;;;;5011089;28;20321;-77
2021/03/24 00:11:05;;;;;;;21.05;13.30;;;3.90;99.90;;;;;;5010788;28;20196;-77
2021/03/24 00:13:32;;;;;;;20.45;12.38;;;3.90;99.90;;;;;;5011264;28;20238;-76
2021/03/24 00:15:59;;;;;;;23.33;12.55;;;4.10;99.90;;;;;;5010989;28;20230;-76
2021/03/24 00:18:26;;;;;;;23.08;12.68;;;4.00;99.90;;;;;;5011005;28;20678;-77
2021/03/24 00:20:53;;;;;;;23.42;11.88;;;4.00;99.90;;;;;;4998307;28;20394;-77
2021/03/24 00:23:20;;;;;;;19.20;13.40;;;3.90;99.90;;;;;;5011245;28;20243;-77
2021/03/24 00:25:47;;;;;;;23.83;11.73;;;4.10;99.90;;;;;;5011218;28;20274;-77
2021/03/24 00:28:14;;;;;;;20.63;13.43;;;3.90;99.90;;;;;;5004379;28;20236;-77
2021/03/24 00:30:43;;;;;;;19.05;11.32;;;4.10;99.90;;;;;;4991771;28;20590;-78
2021/03/24 00:33:11;;;;;;;19.38;11.25;;;3.80;99.90;;;;;;5010167;28;20220;-78
2021/03/24 00:35:38;;;;;;;19.20;11.40;;;3.80;99.90;;;;;;5012592;28;20310;-78
2021/03/24 00:38:05;;;;;;;23.67;12.95;;;3.90;99.90;;;;;;5012226;28;20228;-78
2021/03/24 00:40:37;;;;;;;31.08;13.48;;;4.10;99.90;;;;;;5012545;28;20527;-78
2021/03/24 00:43:04;;;;;;;20.48;12.63;;;4.00;99.90;;;;;;5013057;28;20208;-77
2021/03/24 00:45:31;;;;;;;22.10;11.85;;;3.90;99.90;;;;;;5012487;28;20216;-78
2021/03/24 00:47:57;;;;;;;20.40;12.50;;;3.90;99.90;;;;;;5010917;28;20280;-77
2021/03/24 00:50:26;;;;;;;22.42;12.70;;;4.00;99.90;;;;;;5010566;28;20319;-77
2021/03/24 00:52:53;;;;;;;22.83;13.95;;;3.80;99.90;;;;;;5009460;28;20241;-77
2021/03/24 00:55:20;;;;;;;24.45;14.55;;;4.00;99.90;;;;;;5010754;28;20200;-77
2021/03/24 00:57:46;;;;;;;19.35;12.82;;;3.50;99.90;;;;;;5011738;28;20249;-77
2021/03/24 01:00:16;;;;;;;21.90;13.40;;;3.60;99.90;;;;;;5012667;28;20582;-77
2021/03/24 01:02:43;;;;;;;24.90;13.52;;;3.60;99.90;;;;;;5011671;28;20254;-77
2021/03/24 01:05:13;;;;;;;19.88;13.20;;;3.40;99.90;;;;;;5011450;28;20277;-77
2021/03/24 01:07:41;;;;;;;21.67;12.80;;;3.60;99.90;;;;;;5011031;28;20224;-77
2021/03/24 01:10:10;;;;;;;22.70;13.25;;;3.40;99.90;;;;;;5009555;28;20200;-77
2021/03/24 01:12:37;;;;;;;23.77;13.55;;;3.60;99.90;;;;;;5011062;28;20257;-77
2021/03/24 01:15:04;;;;;;;25.92;13.82;;;3.60;99.90;;;;;;5011132;28;20650;-77
2021/03/24 01:17:30;;;;;;;20.77;12.27;;;3.60;99.90;;;;;;5010037;28;20617;-77
2021/03/24 01:19:57;;;;;;;23.33;12.80;;;3.60;99.90;;;;;;5010033;28;20211;-76
2021/03/24 01:22:23;;;;;;;21.33;13.13;;;3.60;99.90;;;;;;5010385;28;20298;-77
2021/03/24 01:24:49;;;;;;;24.65;13.60;;;3.70;99.90;;;;;;5010273;28;20216;-77
2021/03/24 01:27:16;;;;;;;23.58;13.80;;;3.60;99.90;;;;;;4995932;28;20682;-77
2021/03/24 01:29:43;;;;;;;23.58;13.48;;;3.70;99.90;;;;;;5010396;28;20670;-77
2021/03/24 01:32:09;;;;;;;24.40;13.05;;;3.50;99.90;;;;;;5011465;28;20204;-77
2021/03/24 01:34:35;;;;;;;16.98;12.30;;;3.30;99.90;;;;;;5010940;28;20204;-77
2021/03/24 01:37:02;;;;;;;20.60;14.15;;;3.50;99.90;;;;;;5010468;28;20231;-77
2021/03/24 01:39:32;;;;;;;23.55;14.27;;;3.20;99.90;;;;;;5009887;28;20282;-77
2021/03/24 01:41:58;;;;;;;21.65;13.20;;;3.30;99.90;;;;;;5009293;28;20248;-76
2021/03/24 01:44:26;;;;;;;19.90;13.75;;;3.40;99.90;;;;;;5008737;28;20291;-77
2021/03/24 01:46:52;;;;;;;20.65;13.00;;;3.30;99.90;;;;;;5010477;28;20255;-77
2021/03/24 01:49:25;;;;;;;19.80;12.50;;;3.30;99.90;;;;;;5010147;28;20210;-77
2021/03/24 01:51:55;;;;;;;21.58;13.45;;;3.30;99.90;;;;;;5010145;28;20670;-77
2021/03/24 01:54:24;;;;;;;26.05;14.13;;;3.20;99.90;;;;;;5010223;28;20624;-77
2021/03/24 01:56:55;;;;;;;19.63;11.82;;;3.40;99.90;;;;;;5009989;28;20231;-77
2021/03/24 01:59:21;;;;;;;22.35;14.45;;;3.40;99.90;;;;;;5009385;28;20207;-77
2021/03/24 02:01:49;;;;;;;25.58;14.60;;;3.50;99.90;;;;;;5002053;28;20331;-77
2021/03/24 02:04:15;;;;;;;23.60;13.43;;;3.30;99.90;;;;;;5010287;28;20208;-77
2021/03/24 02:06:46;;;;;;;25.00;13.88;;;3.20;99.90;;;;;;5010295;28;20322;-78
2021/03/24 02:09:23;;;;;;;21.83;13.02;;;3.30;99.90;;;;;;5010755;28;20645;-77
2021/03/24 02:11:55;;;;;;;23.50;13.45;;;3.40;99.90;;;;;;5011534;28;20686;-78
2021/03/24 02:14:26;;;;;;;24.77;13.00;;;3.10;99.90;;;;;;5010538;28;20686;-77
2021/03/24 02:16:55;;;;;;;21.90;13.68;;;3.20;99.90;;;;;;5006086;28;20231;-77
2021/03/24 02:19:38;;;;;;;25.23;14.32;;;3.30;99.90;;;;;;5009698;28;20272;-78
2021/03/24 02:22:06;;;;;;;22.08;13.60;;;3.00;99.90;;;;;;5010967;28;20229;-77
2021/03/24 02:24:48;;;;;;;24.50;14.48;;;3.20;99.90;;;;;;5010167;28;20212;-77
2021/03/24 02:27:19;;;;;;;28.17;14.15;;;3.10;99.90;;;;;;5006921;28;20314;-77
2021/03/24 02:30:01;;;;;;;22.17;12.48;;;3.10;99.90;;;;;;5011190;28;20212;-77
2021/03/24 02:32:30;;;;;;;24.17;15.40;;;3.10;99.90;;;;;;5002505;28;20299;-77
2021/03/24 02:35:01;;;;;;;25.08;14.43;;;3.20;99.90;;;;;;4999148;28;20292;-77
2021/03/24 02:37:30;;;;;;;25.20;13.70;;;3.20;99.90;;;;;;5009329;28;20227;-77
2021/03/24 02:39:57;;;;;;;24.67;14.02;;;3.00;99.90;;;;;;5009038;28;20290;-77
2021/03/24 02:42:25;;;;;;;25.42;15.48;;;3.00;99.90;;;;;;5009055;28;20782;-77
2021/03/24 02:44:52;;;;;;;20.83;14.07;;;2.80;99.90;;;;;;5009439;28;20273;-77
2021/03/24 02:47:19;;;;;;;24.20;14.75;;;2.90;99.90;;;;;;5009641;28;20239;-77
2021/03/24 02:49:46;;;;;;;21.30;13.73;;;3.00;99.90;;;;;;4995257;28;20302;-77
2021/03/24 02:52:13;;;;;;;22.90;13.27;;;2.80;99.90;;;;;;4990044;28;20218;-77
2021/03/24 02:54:42;;;;;;;23.90;13.75;;;2.80;99.90;;;;;;5007849;28;20299;-77
2021/03/24 02:57:09;;;;;;;23.10;13.68;;;3.10;99.90;;;;;;5011759;28;20234;-77
2021/03/24 02:59:36;;;;;;;24.00;12.88;;;2.90;99.90;;;;;;5009708;28;20311;-77
2021/03/24 03:02:07;;;;;;;21.20;12.25;;;2.80;99.90;;;;;;5012199;28;20299;-77
2021/03/24 03:04:38;;;;;;;20.75;13.40;;;3.00;99.90;;;;;;5011825;28;20253;-77
2021/03/24 03:07:10;;;;;;;23.55;14.00;;;2.80;99.90;;;;;;5010912;28;20804;-77
2021/03/24 03:09:45;;;;;;;21.98;12.98;;;2.90;99.90;;;;;;5006099;28;20223;-77
2021/03/24 03:12:21;;;;;;;18.00;11.95;;;2.80;99.90;;;;;;5013754;28;20390;-76
2021/03/24 03:14:57;;;;;;;22.25;13.13;;;2.90;99.90;;;;;;4993207;28;20323;-77
2021/03/24 03:17:33;;;;;;;26.30;15.18;;;2.80;99.90;;;;;;4994761;28;20242;-77
2021/03/24 03:20:08;;;;;;;22.67;13.25;;;2.90;99.90;;;;;;5015243;28;20584;-77
2021/03/24 03:22:38;;;;;;;21.27;12.80;;;2.80;99.90;;;;;;5015447;28;20257;-77
2021/03/24 03:25:11;;;;;;;20.88;12.77;;;2.80;99.90;;;;;;5012654;28;20255;-78
2021/03/24 03:27:40;;;;;;;21.77;13.10;;;2.80;99.90;;;;;;5053303;22;21671;-82
2021/03/24 03:30:12;;;;;;;23.25;13.55;;;2.80;99.90;;;;;;5081263;28;20293;-82
2021/03/24 03:32:39;;;;;;;22.95;14.20;;;2.80;99.90;;;;;;5086471;28;20216;-82
2021/03/24 03:35:11;;;;;;;23.92;13.70;;;2.80;99.90;;;;;;5082746;28;20209;-83
2021/03/24 03:37:39;;;;;;;28.75;15.02;;;2.80;99.90;;;;;;5076605;28;20616;-82
2021/03/24 03:40:09;;;;;;;23.00;14.90;;;2.70;99.90;;;;;;5064491;28;20210;-82
2021/03/24 03:42:37;;;;;;;21.77;13.48;;;2.80;99.90;;;;;;5060933;28;20196;-81
2021/03/24 03:45:06;;;;;;;21.75;13.55;;;2.80;99.90;;;;;;5047293;28;20207;-82
2021/03/24 03:47:33;;;;;;;27.02;13.57;;;2.80;99.90;;;;;;5045018;28;20223;-81
2021/03/24 03:49:59;;;;;;;24.92;13.98;;;2.80;99.90;;;;;;5073236;28;20214;-81
2021/03/24 03:52:38;;;;;;;25.27;12.98;;;2.90;99.90;;;;;;5065184;28;20210;-82
2021/03/24 03:55:19;;;;;;;23.25;14.10;;;2.80;99.90;;;;;;5060053;28;20222;-82
2021/03/24 03:57:51;;;;;;;25.55;13.68;;;2.80;99.90;;;;;;5060081;28;20256;-83
2021/03/24 04:00:21;;;;;;;20.67;12.90;;;2.70;99.90;;;;;;5051784;28;20199;-83
2021/03/24 04:02:55;;;;;;;23.98;14.20;;;2.80;99.90;;;;;;5041630;28;20218;-83
2021/03/24 04:05:26;;;;;;;23.42;13.73;;;2.70;99.90;;;;;;5046098;28;20611;-82
2021/03/24 04:07:56;;;;;;;26.65;13.32;;;2.70;99.90;;;;;;5047102;28;20246;-83
2021/03/24 04:10:25;;;;;;;21.63;12.60;;;2.70;99.90;;;;;;5043273;28;20294;-82
2021/03/24 04:12:54;;;;;;;22.73;13.88;;;2.60;99.90;;;;;;5045999;28;20210;-82
2021/03/24 04:15:21;;;;;;;20.30;13.00;;;2.90;99.90;;;;;;5042317;28;20207;-82
2021/03/24 04:17:51;;;;;;;25.92;14.00;;;2.90;99.90;;;;;;5063950;28;20333;-79
2021/03/24 04:20:21;;;;;;;26.40;14.02;;;2.70;99.90;;;;;;5071569;28;20244;-82
2021/03/24 04:22:49;;;;;;;26.63;14.70;;;2.70;99.90;;;;;;5066414;28;20209;-82
2021/03/24 04:25:22;;;;;;;26.95;14.82;;;2.80;99.90;;;;;;5063765;28;20203;-82
2021/03/24 04:27:50;;;;;;;23.48;15.23;;;2.80;99.90;;;;;;5052105;28;20233;-84
2021/03/24 04:30:22;;;;;;;24.95;14.80;;;2.80;99.90;;;;;;5050407;28;20249;-84
2021/03/24 04:32:49;;;;;;;25.88;14.25;;;2.60;99.90;;;;;;5053582;28;20748;-84
2021/03/24 04:35:20;;;;;;;21.25;13.80;;;2.70;99.90;;;;;;5053407;28;20210;-83
2021/03/24 04:37:51;;;;;;;22.85;13.45;;;2.70;99.90;;;;;;5053821;28;20289;-84
2021/03/24 04:40:24;;;;;;;22.85;12.73;;;2.50;99.90;;;;;;5060953;28;20281;-84
2021/03/24 04:42:53;;;;;;;21.55;12.35;;;2.60;99.90;;;;;;5058529;28;20202;-84
2021/03/24 04:45:34;;;;;;;25.48;14.00;;;2.50;99.90;;;;;;5059364;28;20350;-84
2021/03/24 04:48:05;;;;;;;23.42;14.65;;;2.80;99.90;;;;;;5062134;28;20243;-84
2021/03/24 04:50:35;;;;;;;23.23;13.75;;;2.80;99.90;;;;;;5058257;28;20228;-85
2021/03/24 04:53:05;;;;;;;25.95;14.65;;;2.60;99.90;;;;;;5046357;28;20294;-84
2021/03/24 04:55:32;;;;;;;24.45;13.98;;;2.60;99.90;;;;;;5056156;28;20746;-85
2021/03/24 04:58:02;;;;;;;24.45;14.45;;;2.60;99.90;;;;;;5056589;28;20281;-85
2021/03/24 05:00:35;;;;;;;23.25;14.30;;;2.60;99.90;;;;;;5048564;28;20229;-85
2021/03/24 05:03:08;;;;;;;23.95;15.00;;;2.60;99.90;;;;;;5057818;28;20269;-85
2021/03/24 05:05:40;;;;;;;24.63;14.20;;;2.60;99.90;;;;;;5037597;28;20893;-84
2021/03/24 05:08:14;;;;;;;26.65;14.93;;;2.40;99.90;;;;;;5037882;28;20716;-84
2021/03/24 05:10:43;;;;;;;23.27;14.75;;;2.70;99.90;;;;;;5036823;28;20207;-85
2021/03/24 05:13:18;;;;;;;27.90;14.63;;;2.50;99.90;;;;;;5035430;28;20969;-84
2021/03/24 05:15:53;;;;;;;20.92;14.48;;;2.50;99.90;;;;;;5036158;28;20206;-85
2021/03/24 05:21:28;;;;;;;20.52;13.57;;;2.80;99.90;;;;;;5044747;28;20199;-84
2021/03/24 05:23:59;;;;;;;25.60;14.20;;;2.90;99.90;;;;;;5057715;28;20194;-84
2021/03/24 05:26:38;;;;;;;26.50;14.65;;;2.80;99.90;;;;;;5056695;28;20598;-85
2021/03/24 05:29:10;;;;;;;22.10;12.63;;;2.60;99.90;;;;;;5055531;28;20283;-83
2021/03/24 05:31:42;;;;;;;26.65;14.50;;;2.60;99.90;;;;;;5055360;28;20409;-84
2021/03/24 05:34:14;;;;;;;22.35;13.90;;;2.60;99.90;;;;;;5055162;28;20191;-84
2021/03/24 05:36:44;;;;;;;24.25;14.52;;;2.60;99.90;;;;;;5055734;28;20251;-85
2021/03/24 05:39:13;;;;;;;22.40;13.02;;;2.60;99.90;;;;;;5055644;28;20246;-85
2021/03/24 05:41:45;;;;;;;22.00;14.35;;;2.70;99.90;;;;;;5054924;28;20210;-85
2021/03/24 05:44:32;;;;;;;24.60;13.15;;;2.60;99.90;;;;;;5055871;28;20286;-86
2021/03/24 05:47:14;;;;;;;23.70;15.27;;;2.60;99.90;;;;;;5053868;28;20266;-84
2021/03/24 05:49:47;;;;;;;25.00;13.63;;;2.50;99.90;;;;;;5047056;28;20205;-85
2021/03/24 05:52:40;;;;;;;27.58;14.85;;;2.40;99.90;;;;;;5055587;28;20285;-85
2021/03/24 05:55:33;;;;;;;27.45;15.75;;;2.70;99.90;;;;;;5055246;28;20206;-83
2021/03/24 05:58:08;;;;;;;26.23;14.50;;;2.70;99.90;;;;;;5041325;28;20244;-83
2021/03/24 06:00:39;;;;;;;23.60;15.18;;;2.70;99.90;;;;;;5051815;28;20905;-84
2021/03/24 06:03:20;;;;;;;29.95;16.65;;;2.80;99.90;;;;;;5054976;28;20332;-84
2021/03/24 06:06:11;;;;;;;30.88;16.40;;;2.80;99.90;;;;;;5056641;28;20248;-82
2021/03/24 06:09:10;;;;;;;30.80;17.50;;;2.90;99.90;;;;;;5055796;28;20322;-83
2021/03/24 06:11:59;;;;;;;29.00;16.13;;;3.00;99.90;;;;;;5046469;28;20198;-83
2021/03/24 06:14:50;;;;;;;28.02;17.05;;;3.00;99.90;;;;;;5056658;28;20197;-83
2021/03/24 06:17:53;;;;;;;28.00;17.20;;;3.00;99.90;;;;;;5056588;28;20207;-84
2021/03/24 06:20:32;;;;;;;30.15;17.02;;;2.90;99.90;;;;;;5054461;28;20229;-83
2021/03/24 06:23:24;;;;;;;27.48;15.75;;;3.10;99.90;;;;;;5045698;28;20673;-84
2021/03/24 06:26:01;;;;;;;23.17;14.48;;;3.10;99.90;;;;;;5065874;28;20229;-83
2021/03/24 06:28:37;;;;;;;26.63;16.20;;;3.20;99.90;;;;;;5063917;28;20254;-82
2021/03/24 06:31:49;;;;;;;27.40;17.77;;;3.30;99.90;;;;;;5056881;28;20258;-81
2021/03/24 06:34:48;;;;;;;29.77;17.27;;;3.30;99.90;;;;;;4995960;28;20208;-83
2021/03/24 06:37:27;;;;;;;27.70;16.10;;;3.30;99.90;;;;;;4996407;28;20193;-85
2021/03/24 06:40:21;;;;;;;23.88;16.00;;;3.50;99.90;;;;;;5046274;28;20707;-85
2021/03/24 06:42:59;;;;;;;26.30;17.38;;;3.80;99.90;;;;;;5056737;28;20207;-83
2021/03/24 06:45:55;;;;;;;29.83;17.05;;;3.90;99.90;;;;;;5058199;28;20625;-82
2021/03/24 06:48:47;;;;;;;29.15;18.05;;;3.90;99.90;;;;;;5067822;28;20345;-83
2021/03/24 06:51:45;;;;;;;26.05;16.00;;;4.10;99.90;;;;;;5052349;28;20225;-83
2021/03/24 06:54:36;;;;;;;29.17;16.98;;;4.10;99.90;;;;;;5051496;28;20219;-81
2021/03/24 06:57:30;;;;;;;27.83;16.60;;;4.10;99.90;;;;;;5043309;28;20290;-82
2021/03/24 07:00:29;;;;;;;26.58;17.00;;;4.10;99.90;;;;;;5053731;28;20288;-83
2021/03/24 07:03:33;;;;;;;28.33;18.40;;;4.40;99.90;;;;;;5042667;28;20199;-84
2021/03/24 07:06:10;;;;;;;31.13;18.70;;;4.30;99.90;;;;;;5050883;28;20237;-84
2021/03/24 07:09:08;;;;;;;31.85;21.30;;;4.40;99.90;;;;;;5061011;28;20881;-84
2021/03/24 07:12:13;;;;;;;28.95;18.13;;;4.40;99.90;;;;;;5063168;28;20199;-84
2021/03/24 07:15:21;;;;;;;27.58;17.00;;;4.50;99.90;;;;;;5014964;28;20204;-83
2021/03/24 07:18:19;;;;;;;29.05;17.60;;;4.60;99.90;;;;;;4975594;28;20237;-83
2021/03/24 07:21:10;;;;;;;30.80;18.48;;;4.80;99.90;;;;;;5041079;28;20812;-83
2021/03/24 07:24:03;;;;;;;29.45;15.98;;;4.90;99.90;;;;;;5062609;28;20266;-83
2021/03/24 07:26:46;;;;;;;25.45;16.45;;;5.00;99.90;;;;;;5042107;28;20576;-78
2021/03/24 07:29:29;;;;;;;28.65;16.90;;;5.40;99.90;;;;;;5056416;28;20246;-82
2021/03/24 07:32:04;;;;;;;26.85;16.08;;;5.60;99.90;;;;;;5042686;28;20598;-80
2021/03/24 07:34:56;;;;;;;29.17;15.98;;;5.70;99.90;;;;;;5045011;28;20225;-78
2021/03/24 07:38:11;;;;;;;30.60;17.58;;;5.80;99.90;;;;;;5053721;28;20213;-80
2021/03/24 07:40:58;;;;;;;25.75;16.30;;;5.90;99.90;;;;;;5060459;28;20211;-79
2021/03/24 07:43:42;;;;;;;22.88;16.17;;;6.00;99.90;;;;;;5068366;28;20206;-79
2021/03/24 07:46:35;;;;;;;23.77;16.85;;;6.00;99.90;;;;;;5067455;28;20278;-79
2021/03/24 07:49:23;;;;;;;26.67;17.38;;;6.20;99.90;;;;;;5063686;28;20253;-81
2021/03/24 07:52:18;;;;;;;25.33;15.90;;;6.20;99.90;;;;;;5059528;28;20292;-82
2021/03/24 07:54:54;;;;;;;30.67;17.25;;;6.20;99.90;;;;;;5053817;28;20234;-82
2021/03/24 07:57:31;;;;;;;23.52;16.40;;;6.30;99.90;;;;;;5061792;28;20232;-83
2021/03/24 08:00:06;;;;;;;26.63;15.98;;;6.60;99.90;;;;;;5058984;28;20621;-84
2021/03/24 08:02:57;;;;;;;21.92;15.35;;;6.60;99.90;;;;;;5054597;28;20577;-83
2021/03/24 08:06:12;;;;;;;29.13;16.98;;;6.60;99.90;;;;;;5063314;28;20238;-83
2021/03/24 08:08:59;;;;;;;28.42;16.00;;;6.70;99.90;;;;;;5062476;28;20233;-83
2021/03/24 08:11:33;;;;;;;24.60;15.23;;;7.00;99.90;;;;;;5043635;28;20196;-84
2021/03/24 08:14:24;;;;;;;26.27;15.93;;;7.10;99.90;;;;;;5040495;28;20191;-83
2021/03/24 08:17:02;;;;;;;26.00;14.90;;;7.20;99.90;;;;;;5055593;28;20663;-79
2021/03/24 08:20:02;;;;;;;24.13;16.42;;;7.40;99.90;;;;;;5067421;28;20282;-79
2021/03/24 08:22:40;;;;;;;23.50;16.10;;;7.40;99.90;;;;;;5044247;28;20202;-79
2021/03/24 08:25:27;;;;;;;24.08;15.15;;;7.30;99.90;;;;;;5061172;28;20683;-78
2021/03/24 08:27:59;;;;;;;22.15;15.20;;;7.40;99.90;;;;;;5043025;28;20269;-79
2021/03/24 08:30:42;;;;;;;22.50;15.10;;;7.90;99.90;;;;;;5059184;28;20209;-78
2021/03/24 08:33:32;;;;;;;24.33;15.02;;;7.70;99.90;;;;;;5058143;28;20224;-79
2021/03/24 08:36:09;;;;;;;24.80;16.58;;;7.90;99.90;;;;;;5058569;28;20299;-81
2021/03/24 08:39:18;;;;;;;24.75;14.65;;;7.90;99.90;;;;;;5058390;28;20222;-80
2021/03/24 08:42:15;;;;;;;27.13;15.00;;;8.00;99.90;;;;;;5059352;28;20297;-80
2021/03/24 08:44:48;;;;;;;23.70;14.35;;;8.20;99.90;;;;;;5057739;28;20222;-80
2021/03/24 08:47:19;;;;;;;20.98;12.57;;;8.30;99.90;;;;;;5053261;28;20294;-81
2021/03/24 08:49:48;;;;;;;18.58;12.20;;;8.30;99.90;;;;;;5057709;28;20229;-77
2021/03/24 08:52:35;;;;;;;22.73;13.02;;;8.40;99.90;;;;;;5063242;28;20210;-77
2021/03/24 08:55:24;;;;;;;23.70;15.35;;;8.60;99.90;;;;;;5064855;28;20198;-79
2021/03/24 08:58:11;;;;;;;23.17;15.90;;;8.60;99.90;;;;;;5063406;28;20254;-77
2021/03/24 09:01:05;;;;;;;26.97;16.03;;;8.80;99.90;;;;;;5049985;28;20221;-78
2021/03/24 09:03:56;;;;;;;27.67;15.38;;;8.30;99.90;;;;;;5057750;28;20544;-80
2021/03/24 09:06:35;;;;;;;25.73;15.63;;;8.80;99.90;;;;;;5059504;28;20270;-80
2021/03/24 09:09:14;;;;;;;21.90;15.10;;;8.90;99.90;;;;;;5055976;28;20226;-83
2021/03/24 09:11:47;;;;;;;26.57;15.90;;;9.00;99.90;;;;;;5038438;28;20509;-81
2021/03/24 09:14:24;;;;;;;25.73;15.53;;;8.70;99.90;;;;;;5048504;28;20804;-84
2021/03/24 09:17:27;;;;;;;24.98;15.52;;;9.10;99.90;;;;;;5040816;28;20548;-82
2021/03/24 09:20:24;;;;;;;23.50;14.53;;;9.20;99.90;;;;;;5044779;28;20214;-85
2021/03/24 09:23:09;;;;;;;24.97;14.90;;;9.10;99.90;;;;;;5051015;28;20544;-82
2021/03/24 09:25:46;;;;;;;27.77;14.93;;;9.30;99.90;;;;;;5069160;28;20441;-84
2021/03/24 09:28:33;;;;;;;21.77;14.30;;;9.40;99.90;;;;;;5059017;28;20508;-80
2021/03/24 09:31:40;;;;;;;23.93;13.60;;;9.40;99.90;;;;;;5040098;22;20597;-75
2021/03/24 09:34:18;;;;;;;21.67;12.40;;;9.40;99.90;;;;;;5013082;28;20449;-80
2021/03/24 09:36:59;;;;;;;22.60;15.00;;;9.50;99.90;;;;;;5015675;28;20516;-79
2021/03/24 09:39:31;;;;;;;22.17;14.23;;;9.40;99.90;;;;;;5017002;28;20498;-79
2021/03/24 09:42:03;;;;;;;22.93;15.03;;;9.60;99.90;;;;;;5021712;28;20431;-80
2021/03/24 09:44:36;;;;;;;23.90;15.63;;;9.50;99.90;;;;;;5014733;28;20545;-78
2021/03/24 09:47:14;;;;;;;22.13;14.07;;;9.70;99.90;;;;;;5014761;28;20526;-78
2021/03/24 09:49:46;;;;;;;22.73;14.47;;;9.80;99.90;;;;;;5012509;28;20528;-77
2021/03/24 09:52:28;;;;;;;22.53;14.17;;;9.90;99.90;;;;;;4995720;28;20433;-78
2021/03/24 09:55:10;;;;;;;27.07;15.97;;;10.00;99.90;;;;;;4992512;28;20508;-78
2021/03/24 09:58:14;;;;;;;20.50;14.80;;;10.00;99.90;;;;;;4992742;28;20578;-79
2021/03/24 10:00:53;;;;;;;57.27;16.10;;;10.00;99.90;;;;;;5003639;28;20471;-79
2021/03/24 10:03:32;;;;;;;27.40;14.90;;;10.10;99.90;;;;;;5012912;28;20942;-79
2021/03/24 10:06:01;;;;;;;25.50;14.03;;;9.90;99.90;;;;;;5012526;28;20464;-79
2021/03/24 10:08:35;;;;;;;24.40;14.10;;;10.10;99.90;;;;;;5010990;28;20598;-78
2021/03/24 10:11:15;;;;;;;24.30;14.67;;;10.30;99.90;;;;;;5010612;28;20816;-79
2021/03/24 10:13:48;;;;;;;21.53;13.70;;;10.20;99.10;;;;;;5010886;28;20636;-79
2021/03/24 10:16:21;;;;;;;22.37;14.73;;;10.40;99.50;;;;;;5010919;28;20446;-78
2021/03/24 10:18:55;;;;;;;34.37;15.73;;;10.50;99.20;;;;;;5011100;28;20491;-79
2021/03/24 10:21:26;;;;;;;21.27;15.03;;;10.70;99.00;;;;;;5013018;28;20473;-79
2021/03/24 10:23:57;;;;;;;20.00;13.60;;;10.70;98.30;;;;;;5006689;28;20547;-79
2021/03/24 10:26:33;;;;;;;20.00;13.93;;;10.80;98.30;;;;;;5019070;28;20464;-78
2021/03/24 10:29:07;;;;;;;25.50;14.10;;;10.90;98.30;;;;;;5032666;28;20451;-79
2021/03/24 10:31:38;;;;;;;21.10;12.10;;;11.00;97.80;;;;;;5013774;28;20541;-79
2021/03/24 10:34:12;;;;;;;19.00;12.40;;;11.00;96.90;;;;;;5020073;28;20473;-79
2021/03/24 10:36:45;;;;;;;24.27;13.90;;;11.00;96.70;;;;;;5019797;28;20526;-78
2021/03/24 10:39:19;;;;;;;23.90;13.60;;;11.00;96.80;;;;;;5019547;28;20581;-79
2021/03/24 10:41:55;;;;;;;18.03;11.77;;;11.20;97.00;;;;;;5015729;28;20516;-79
2021/03/24 10:44:30;;;;;;;19.60;13.10;;;11.20;97.00;;;;;;5015497;28;20457;-78
2021/03/24 10:47:13;;;;;;;20.40;12.30;;;11.20;96.80;;;;;;5017246;28;20919;-79
2021/03/24 10:49:49;;;;;;;18.43;12.37;;;11.40;96.60;;;;;;5021143;28;20462;-79
2021/03/24 10:52:18;;;;;;;21.97;13.70;;;11.40;96.20;;;;;;5018490;28;20959;-79
2021/03/24 10:54:46;;;;;;;22.33;11.50;;;11.40;96.30;;;;;;5017208;28;21012;-79
2021/03/24 10:57:32;;;;;;;19.50;12.20;;;11.40;96.10;;;;;;5006763;28;20515;-79
2021/03/24 11:00:11;;;;;;;19.30;12.53;;;11.40;96.30;;;;;;5001128;28;20461;-79
2021/03/24 11:02:45;;;;;;;23.00;13.50;;;11.40;96.40;;;;;;5015770;28;20503;-79
2021/03/24 11:05:16;;;;;;;19.13;12.40;;;11.50;96.90;;;;;;5015412;28;20457;-79
2021/03/24 11:07:50;;;;;;;14.83;9.57;;;11.60;96.30;;;;;;5015657;28;20482;-79
2021/03/24 11:10:34;;;;;;;21.80;13.50;;;11.60;96.10;;;;;;5015943;28;20480;-79
2021/03/24 11:13:05;;;;;;;22.27;13.83;;;11.70;96.30;;;;;;5017775;28;20496;-79
2021/03/24 11:15:48;;;;;;;19.00;11.13;;;11.70;96.00;;;;;;5016339;28;20473;-79
2021/03/24 11:18:19;;;;;;;14.10;8.50;;;11.70;96.00;;;;;;5014385;28;20589;-78
2021/03/24 11:20:48;;;;;;;30.80;13.23;;;11.70;95.50;;;;;;5014373;28;20558;-78
2021/03/24 11:23:19;;;;;;;18.60;13.40;;;11.60;95.50;;;;;;5014351;28;20451;-78
2021/03/24 11:25:53;;;;;;;20.07;12.50;;;11.70;95.80;;;;;;5021532;28;20936;-78
2021/03/24 11:28:26;;;;;;;26.40;14.87;;;12.00;95.70;;;;;;5034347;28;20450;-78
2021/03/24 11:31:02;;;;;;;18.30;12.83;;;12.00;95.10;;;;;;5015400;28;20489;-79
2021/03/24 11:33:36;;;;;;;20.13;14.10;;;12.00;94.90;;;;;;5015705;28;20474;-78
2021/03/24 11:36:07;;;;;;;29.27;14.37;;;12.00;95.00;;;;;;5014725;28;21002;-79
2021/03/24 11:38:43;;;;;;;22.20;13.43;;;12.10;95.00;;;;;;5015698;28;20550;-79
2021/03/24 11:41:13;;;;;;;24.03;14.27;;;12.20;95.00;;;;;;5015632;28;20486;-79
2021/03/24 11:43:42;;;;;;;20.30;13.27;;;12.40;94.10;;;;;;5016998;28;20525;-78
2021/03/24 11:46:19;;;;;;;19.77;12.43;;;12.40;94.40;;;;;;5017300;28;20447;-78
2021/03/24 11:49:02;;;;;;;21.03;11.53;;;12.40;94.50;;;;;;5019755;28;20451;-79
2021/03/24 11:51:38;;;;;;;18.13;12.43;;;12.30;94.60;;;;;;5014863;28;20542;-78
2021/03/24 11:54:25;;;;;;;20.17;14.20;;;12.30;94.30;;;;;;5014494;28;20425;-78
2021/03/24 11:57:21;;;;;;;21.63;13.47;;;12.40;94.10;;;;;;5013263;28;20458;-79
2021/03/24 12:00:14;;;;;;;21.40;13.73;;;12.50;94.20;;;;;;5006387;28;20868;-75
2021/03/24 12:02:55;;;;;;;18.83;14.40;;;12.50;93.80;;;;;;5007849;28;20468;-75
2021/03/24 12:05:26;;;;;;;21.43;14.33;;;12.50;93.90;;;;;;5011718;28;20500;-76
2021/03/24 12:08:20;;;;;;;22.70;13.90;;;12.60;93.80;;;;;;5011429;28;20799;-75
2021/03/24 12:10:59;;;;;;;21.30;14.80;;;12.50;93.50;;;;;;5012667;28;20501;-79
2021/03/24 12:13:30;;;;;;;25.70;15.93;;;12.50;93.50;;;;;;5002548;28;20530;-78
2021/03/24 12:16:04;;;;;;;20.93;14.23;;;12.50;94.00;;;;;;4995316;28;20498;-79
2021/03/24 12:18:41;;;;;;;22.80;14.83;;;12.50;93.50;;;;;;5013079;28;20578;-78
2021/03/24 12:21:18;;;;;;;17.70;11.70;;;12.60;93.70;;;;;;5018246;28;20584;-78
2021/03/24 12:23:45;;;;;;;20.30;13.67;;;12.70;93.50;;;;;;5016849;28;20535;-78
2021/03/24 12:26:26;;;;;;;21.10;14.87;;;12.60;93.40;;;;;;5032091;28;20454;-79
2021/03/24 12:28:55;;;;;;;21.07;13.00;;;12.60;93.60;;;;;;5035282;28;20533;-78
2021/03/24 12:31:24;;;;;;;29.63;15.40;;;12.70;93.40;;;;;;5016711;28;20544;-78
2021/03/24 12:33:54;;;;;;;24.90;15.57;;;12.70;93.40;;;;;;5013746;28;20462;-78
2021/03/24 12:36:24;;;;;;;19.30;14.07;;;12.80;93.50;;;;;;5015532;28;20480;-79
2021/03/24 12:38:57;;;;;;;24.03;15.13;;;13.00;93.40;;;;;;5020044;28;20475;-77
2021/03/24 12:41:34;;;;;;;20.77;15.30;;;13.10;93.10;;;;;;5027906;28;20443;-79
2021/03/24 12:44:18;;;;;;;21.23;13.00;;;13.10;93.20;;;;;;5020732;28;20455;-78
2021/03/24 12:46:53;;;;;;;25.47;16.50;;;13.10;92.90;;;;;;5015028;28;20454;-78
2021/03/24 12:49:24;;;;;;;27.40;16.67;;;13.00;92.90;;;;;;5013777;28;20534;-79
2021/03/24 12:52:00;;;;;;;23.97;14.73;;;13.10;93.00;;;;;;5016770;28;20437;-80
2021/03/24 12:54:26;;;;;;;22.40;15.50;;;13.20;93.00;;;;;;4993718;28;20466;-76
2021/03/24 12:57:38;;;;;;;20.60;13.40;;;13.30;92.80;;;;;;5008516;28;20459;-75
2021/03/24 13:00:40;;;;;;;21.03;14.67;;;13.30;92.50;;;;;;4998393;28;20465;-76
2021/03/24 13:03:40;;;;;;;21.47;15.03;;;13.30;92.80;;;;;;5013361;28;20468;-76
2021/03/24 13:06:21;;;;;;;28.13;15.80;;;13.50;92.90;;;;;;5013537;28;20562;-79
2021/03/24 13:08:57;;;;;;;23.60;14.10;;;13.50;92.60;;;;;;5014967;28;20530;-79
2021/03/24 13:11:35;;;;;;;24.30;15.03;;;13.50;92.30;;;;;;5014449;28;20906;-79
2021/03/24 13:14:22;;;;;;;21.20;14.27;;;13.50;92.30;;;;;;5013742;28;20532;-79
2021/03/24 13:16:55;;;;;;;21.70;15.03;;;13.70;92.10;;;;;;5013869;28;20429;-79
2021/03/24 13:19:27;;;;;;;20.03;13.27;;;13.80;92.20;;;;;;5014446;28;20651;-79
2021/03/24 13:22:00;;;;;;;19.53;14.50;;;13.80;92.80;;;;;;5014489;28;20465;-79
2021/03/24 13:24:52;;;;;;;20.27;13.20;;;13.80;92.30;;;;;;4996482;28;20535;-79